createdAt,value
2022-08-18T00:02:05.378Z,8.90
2022-08-18T00:04:35.976Z,9.77
2022-08-18T00:07:03.975Z,11.25
2022-08-18T00:09:32.845Z,10.90
2022-08-18T00:12:02.213Z,13.27
2022-08-18T00:14:29.253Z,10.70
2022-08-18T00:16:56.082Z,12.43
2022-08-18T00:19:45.635Z,10.80
2022-08-18T00:22:15.336Z,9.65
2022-08-18T00:24:47.486Z,9.25
2022-08-18T00:27:17.405Z,14.27
2022-08-18T00:29:45.007Z,9.90
2022-08-18T00:32:38.567Z,11.00
2022-08-18T00:35:18.479Z,9.52
2022-08-18T00:37:45.318Z,10.90
2022-08-18T00:40:16.858Z,9.18
2022-08-18T00:42:51.006Z,12.10
2022-08-18T00:45:23.295Z,13.98
2022-08-18T00:47:50.016Z,11.52
2022-08-18T00:50:22.337Z,9.13
2022-08-18T00:52:57.721Z,10.98
2022-08-18T00:55:24.844Z,11.15
2022-08-18T00:57:56.034Z,11.63
2022-08-18T01:00:23.103Z,10.70
2022-08-18T01:02:53.458Z,10.55
2022-08-18T01:05:28.322Z,11.68
2022-08-18T01:07:55.163Z,14.13
2022-08-18T01:10:23.371Z,12.73
2022-08-18T01:12:52.974Z,10.80
2022-08-18T01:15:28.814Z,15.13
2022-08-18T01:18:19.790Z,12.57
2022-08-18T01:21:14.403Z,11.13
2022-08-18T01:23:41.098Z,10.45
2022-08-18T01:26:09.542Z,9.30
2022-08-18T01:28:39.761Z,9.80
2022-08-18T01:31:07.823Z,10.20
2022-08-18T01:33:37.231Z,10.98
2022-08-18T01:36:16.872Z,13.55
2022-08-18T01:38:45.974Z,9.95
2022-08-18T01:41:28.587Z,10.98
2022-08-18T01:43:57.441Z,12.10
2022-08-18T01:46:24.587Z,10.23
2022-08-18T01:48:52.404Z,16.23
2022-08-18T01:51:20.681Z,9.70
2022-08-18T01:54:07.891Z,12.27
2022-08-18T01:56:34.599Z,9.98
2022-08-18T01:59:01.292Z,11.40
2022-08-18T02:01:32.991Z,9.98
2022-08-18T02:04:30.990Z,11.60
2022-08-18T02:06:51.161Z,9.73
2022-08-18T02:09:24.121Z,11.10
2022-08-18T02:11:55.785Z,10.77
2022-08-18T02:14:24.999Z,11.88
2022-08-18T02:16:53.724Z,12.75
2022-08-18T02:19:28.313Z,11.50
2022-08-18T02:21:55.020Z,13.02
2022-08-18T02:24:21.800Z,10.23
2022-08-18T02:26:48.597Z,11.30
2022-08-18T02:29:15.401Z,10.73
2022-08-18T02:31:42.066Z,11.57
2022-08-18T02:34:08.822Z,16.20
2022-08-18T02:36:35.520Z,12.65
2022-08-18T02:39:02.309Z,11.52
2022-08-18T02:41:29.671Z,11.85
2022-08-18T02:43:57.426Z,10.80
2022-08-18T02:46:24.155Z,16.42
2022-08-18T02:48:57.213Z,12.65
2022-08-18T02:51:25.846Z,13.00
2022-08-18T02:53:53.869Z,11.85
2022-08-18T02:56:32.856Z,11.82
2022-08-18T02:59:13.896Z,12.02
2022-08-18T03:01:43.814Z,12.15
2022-08-18T03:04:14.389Z,10.95
2022-08-18T03:06:41.757Z,11.18
2022-08-18T03:09:10.352Z,12.38
2022-08-18T03:11:37.795Z,11.52
2022-08-18T03:14:05.699Z,12.45
2022-08-18T03:16:33.454Z,11.75
2022-08-18T03:19:01.320Z,12.23
2022-08-18T03:21:35.073Z,14.10
2022-08-18T03:24:03.012Z,13.25
2022-08-18T03:26:41.860Z,13.98
2022-08-18T03:29:09.428Z,11.50
2022-08-18T03:31:39.312Z,11.20
2022-08-18T03:34:07.272Z,12.90
2022-08-18T03:36:37.066Z,11.52
2022-08-18T03:39:09.233Z,15.32
2022-08-18T03:41:57.564Z,12.23
2022-08-18T03:44:25.519Z,12.32
2022-08-18T03:46:52.362Z,11.50
2022-08-18T03:49:20.907Z,12.20
2022-08-18T03:51:48.863Z,12.90
2022-08-18T03:54:17.854Z,10.70
2022-08-18T03:56:45.772Z,11.70
2022-08-18T03:59:24.018Z,11.57
2022-08-18T04:01:52.627Z,11.88
2022-08-18T04:04:25.937Z,15.05
2022-08-18T04:06:58.700Z,10.93
2022-08-18T04:09:28.053Z,11.90
2022-08-18T04:11:55.537Z,13.30
2022-08-18T04:14:25.089Z,14.60
2022-08-18T04:16:52.675Z,11.73
2022-08-18T04:19:25.157Z,10.60
2022-08-18T04:21:54.622Z,13.57
2022-08-18T04:24:21.403Z,14.13
2022-08-18T04:26:48.583Z,17.10
2022-08-18T04:29:17.311Z,10.55
2022-08-18T04:31:45.468Z,13.15
2022-08-18T04:34:12.566Z,12.23
2022-08-18T04:36:39.787Z,12.13
2022-08-18T04:39:08.102Z,11.98
2022-08-18T04:41:35.759Z,15.68
2022-08-18T04:44:05.363Z,12.13
2022-08-18T04:46:40.585Z,11.93
2022-08-18T04:49:08.179Z,12.32
2022-08-18T04:52:36.296Z,19.17
2022-08-18T04:54:25.068Z,13.23
2022-08-18T04:56:53.390Z,18.17
2022-08-18T04:59:20.605Z,11.52
2022-08-18T05:01:48.029Z,11.77
2022-08-18T05:04:16.780Z,16.15
2022-08-18T05:06:44.224Z,12.70
2022-08-18T05:09:12.827Z,11.73
2022-08-18T05:11:44.680Z,12.20
2022-08-18T05:14:11.792Z,12.05
2022-08-18T05:16:47.872Z,13.98
2022-08-18T05:19:23.259Z,14.32
2022-08-18T05:21:52.343Z,12.80
2022-08-18T05:24:21.594Z,12.65
2022-08-18T05:26:49.269Z,12.85
2022-08-18T05:29:18.799Z,13.38
2022-08-18T05:31:48.115Z,13.75
2022-08-18T05:34:15.591Z,12.82
2022-08-18T05:36:58.128Z,14.13
2022-08-18T05:39:32.796Z,15.02
2022-08-18T05:42:07.514Z,11.93
2022-08-18T05:44:37.388Z,14.40
2022-08-18T05:47:18.936Z,12.18
2022-08-18T05:49:49.198Z,11.52
2022-08-18T05:52:20.014Z,12.65
2022-08-18T05:55:08.456Z,12.35
2022-08-18T05:57:53.195Z,14.80
2022-08-18T06:00:23.435Z,13.57
2022-08-18T06:02:59.182Z,15.68
2022-08-18T06:05:31.947Z,14.45
2022-08-18T06:08:13.970Z,19.77
2022-08-18T06:10:49.660Z,13.80
2022-08-18T06:13:18.714Z,12.23
2022-08-18T06:16:12.386Z,12.98
2022-08-18T06:18:59.851Z,19.33
2022-08-18T06:21:51.055Z,12.80
2022-08-18T06:24:30.036Z,11.70
2022-08-18T06:27:21.635Z,12.32
2022-08-18T06:29:55.031Z,15.07
2022-08-18T06:32:36.457Z,12.98
2022-08-18T06:35:23.440Z,12.77
2022-08-18T06:38:13.077Z,12.40
2022-08-18T06:40:40.068Z,15.50
2022-08-18T06:43:10.201Z,13.45
2022-08-18T06:45:39.943Z,15.95
2022-08-18T06:48:29.458Z,14.30
2022-08-18T06:51:00.510Z,13.32
2022-08-18T06:54:03.831Z,12.18
2022-08-18T06:56:39.711Z,12.93
2022-08-18T06:59:18.697Z,13.48
2022-08-18T07:01:47.657Z,14.40
2022-08-18T07:04:41.369Z,14.32
2022-08-18T07:07:39.542Z,13.55
2022-08-18T07:10:29.606Z,14.52
2022-08-18T07:13:25.677Z,13.35
2022-08-18T07:15:54.663Z,12.68
2022-08-18T07:18:24.791Z,14.30
2022-08-18T07:20:58.087Z,13.30
2022-08-18T07:23:39.493Z,12.43
2022-08-18T07:26:15.840Z,12.38
2022-08-18T07:28:51.586Z,12.48
2022-08-18T07:31:42.323Z,12.35
2022-08-18T07:34:13.819Z,16.00
2022-08-18T07:36:53.391Z,17.50
2022-08-18T07:39:28.522Z,11.75
2022-08-18T07:42:37.154Z,16.70
2022-08-18T07:45:39.077Z,13.82
2022-08-18T07:48:40.202Z,13.77
2022-08-18T07:51:13.520Z,14.38
2022-08-18T07:54:45.422Z,13.77
2022-08-18T07:57:19.708Z,12.00
2022-08-18T07:59:47.379Z,13.38
2022-08-18T08:02:32.929Z,12.85
2022-08-18T08:05:02.693Z,14.95
2022-08-18T08:07:46.357Z,12.80
2022-08-18T08:10:31.316Z,13.05
2022-08-18T08:13:19.347Z,12.63
2022-08-18T08:16:11.334Z,15.02
2022-08-18T08:18:50.240Z,12.80
2022-08-18T08:21:22.531Z,12.30
2022-08-18T08:24:07.700Z,13.60
2022-08-18T08:26:59.021Z,12.05
2022-08-18T08:29:39.907Z,18.92
2022-08-18T08:32:22.587Z,11.77
2022-08-18T08:34:54.427Z,11.88
2022-08-18T08:37:28.436Z,10.93
2022-08-18T08:40:00.402Z,11.48
2022-08-18T08:42:56.453Z,12.35
2022-08-18T08:45:38.329Z,10.75
2022-08-18T08:48:21.513Z,14.80
2022-08-18T08:51:09.715Z,16.25
2022-08-18T08:53:48.384Z,13.35
2022-08-18T08:56:16.749Z,14.15
2022-08-18T08:58:47.688Z,11.38
2022-08-18T09:01:34.975Z,12.50
2022-08-18T09:04:22.276Z,15.07
2022-08-18T09:07:02.977Z,13.20
2022-08-18T09:10:05.679Z,13.88
2022-08-18T09:12:40.444Z,12.98
2022-08-18T09:15:28.592Z,15.60
2022-08-18T09:18:04.537Z,11.93
2022-08-18T09:21:21.803Z,12.15
2022-08-18T09:23:52.179Z,11.77
2022-08-18T09:26:49.863Z,13.35
2022-08-18T09:29:44.029Z,13.45
2022-08-18T09:32:22.935Z,11.68
2022-08-18T09:35:24.510Z,12.73
2022-08-18T09:38:20.577Z,12.63
2022-08-18T09:41:11.873Z,12.15
2022-08-18T09:43:54.782Z,13.88
2022-08-18T09:46:43.715Z,13.10
2022-08-18T09:49:22.794Z,12.38
2022-08-18T09:51:51.848Z,11.15
2022-08-18T09:54:25.113Z,12.50
2022-08-18T09:56:54.309Z,12.63
2022-08-18T09:59:35.124Z,14.00
2022-08-18T10:02:22.712Z,10.77
2022-08-18T10:05:22.758Z,15.98
2022-08-18T10:08:06.219Z,13.43
2022-08-18T10:11:00.531Z,9.98
2022-08-18T10:13:51.085Z,9.25
2022-08-18T10:16:28.800Z,13.30
2022-08-18T10:19:44.669Z,9.80
2022-08-18T10:22:13.362Z,11.30
2022-08-18T10:24:55.234Z,18.52
2022-08-18T10:27:45.647Z,9.73
2022-08-18T10:30:39.941Z,11.63
2022-08-18T10:33:58.469Z,13.88
2022-08-18T10:36:45.198Z,12.55
2022-08-18T10:39:45.699Z,10.55
2022-08-18T10:42:22.884Z,12.07
2022-08-18T10:44:52.693Z,11.30
2022-08-18T10:47:33.609Z,10.50
2022-08-18T10:50:05.281Z,11.45
2022-08-18T10:53:17.085Z,12.40
2022-08-18T10:55:53.042Z,11.43
2022-08-18T10:58:51.738Z,11.98
2022-08-18T11:01:38.686Z,11.65
2022-08-18T11:04:33.905Z,8.63
2022-08-18T11:07:09.464Z,9.43
2022-08-18T11:09:41.761Z,8.73
2022-08-18T11:12:12.000Z,8.13
2022-08-18T11:15:22.642Z,8.63
2022-08-18T11:17:54.083Z,11.93
2022-08-18T11:20:21.966Z,9.15
2022-08-18T11:23:00.406Z,9.68
2022-08-18T11:25:33.882Z,9.05
2022-08-18T11:28:01.654Z,9.80
2022-08-18T11:30:37.104Z,12.90
2022-08-18T11:33:04.916Z,9.07
2022-08-18T11:35:44.733Z,9.63
2022-08-18T11:41:23.362Z,8.32
2022-08-18T11:43:56.759Z,8.85
2022-08-18T11:46:31.520Z,6.30
2022-08-18T11:49:01.397Z,11.15
2022-08-18T11:51:32.519Z,8.50
2022-08-18T11:54:24.624Z,6.78
2022-08-18T11:56:52.053Z,8.13
2022-08-18T12:02:17.644Z,6.85
2022-08-18T12:04:44.934Z,6.75
2022-08-18T12:07:14.985Z,6.63
2022-08-18T12:10:15.979Z,6.20
2022-08-18T12:13:00.889Z,7.57
2022-08-18T12:18:28.754Z,9.32
2022-08-18T12:21:01.745Z,6.53
2022-08-18T12:23:38.828Z,7.20
2022-08-18T12:26:27.250Z,7.60
2022-08-18T12:29:11.167Z,6.35
2022-08-18T12:34:28.661Z,6.57
2022-08-18T12:36:57.907Z,8.95
2022-08-18T12:39:25.218Z,6.32
2022-08-18T12:41:52.267Z,6.43
2022-08-18T12:44:19.083Z,6.97
2022-08-18T12:46:47.487Z,5.22
2022-08-18T12:49:25.441Z,7.00
2022-08-18T12:51:55.786Z,8.50
2022-08-18T12:54:23.002Z,6.38
2022-08-18T12:56:54.250Z,6.53
2022-08-18T12:59:21.135Z,6.85
2022-08-18T13:01:51.333Z,7.43
2022-08-18T13:04:26.805Z,6.10
2022-08-18T13:07:00.443Z,5.40
2022-08-18T13:09:35.089Z,8.30
2022-08-18T13:12:16.610Z,5.82
2022-08-18T13:14:44.588Z,6.38
2022-08-18T13:17:30.020Z,6.22
2022-08-18T13:20:00.795Z,6.15
2022-08-18T13:22:32.023Z,6.47
2022-08-18T13:25:01.400Z,8.30
2022-08-18T13:27:33.134Z,5.78
2022-08-18T13:30:03.740Z,6.15
2022-08-18T13:32:58.822Z,7.80
2022-08-18T13:35:29.918Z,7.70
2022-08-18T13:38:14.595Z,7.15
2022-08-18T13:40:48.613Z,6.47
2022-08-18T13:43:17.734Z,7.93
2022-08-18T13:45:52.949Z,7.75
2022-08-18T13:48:20.008Z,12.63
2022-08-18T13:50:47.177Z,6.50
2022-08-18T13:53:19.929Z,8.88
2022-08-18T13:55:47.767Z,9.20
2022-08-18T13:58:17.578Z,10.88
2022-08-18T14:00:54.412Z,8.25
2022-08-18T14:03:42.359Z,10.90
2022-08-18T14:06:13.121Z,8.93
2022-08-18T14:08:40.885Z,6.90
2022-08-18T14:11:08.571Z,9.02
2022-08-18T14:13:38.082Z,6.90
2022-08-18T14:16:10.599Z,8.23
2022-08-18T14:18:37.386Z,7.00
2022-08-18T14:21:24.527Z,9.88
2022-08-18T14:24:14.207Z,8.73
2022-08-18T14:26:51.238Z,11.70
2022-08-18T14:29:45.634Z,7.65
2022-08-18T14:32:07.296Z,9.90
2022-08-18T14:34:34.749Z,9.30
2022-08-18T14:37:03.648Z,10.63
2022-08-18T14:39:30.506Z,9.05
2022-08-18T14:41:58.680Z,7.13
2022-08-18T14:44:31.822Z,8.10
2022-08-18T14:46:59.740Z,8.40
2022-08-18T14:49:29.410Z,6.35
2022-08-18T14:52:00.651Z,5.80
2022-08-18T14:54:28.697Z,6.25
2022-08-18T14:56:58.315Z,6.22
2022-08-18T14:59:25.627Z,8.88
2022-08-18T15:01:53.390Z,7.93
2022-08-18T15:04:21.186Z,5.50
2022-08-18T15:06:55.634Z,7.38
2022-08-18T15:09:23.422Z,5.63
2022-08-18T15:11:51.242Z,8.90
2022-08-18T15:14:21.487Z,6.82
2022-08-18T15:17:13.270Z,7.38
2022-08-18T15:19:59.689Z,15.13
2022-08-18T15:22:46.439Z,7.43
2022-08-18T15:25:47.204Z,6.20
2022-08-18T15:28:23.717Z,8.38
2022-08-18T15:31:16.609Z,11.40
2022-08-18T15:33:39.310Z,10.63
2022-08-18T15:36:09.967Z,15.75
2022-08-18T15:38:37.147Z,10.73
2022-08-18T15:41:06.299Z,10.48
2022-08-18T15:43:45.796Z,9.40
2022-08-18T15:46:16.746Z,9.10
2022-08-18T15:48:46.408Z,6.72
2022-08-18T15:51:13.322Z,10.73
2022-08-18T15:53:44.812Z,6.35
2022-08-18T15:56:25.830Z,9.00
2022-08-18T15:58:52.869Z,12.32
2022-08-18T16:01:32.275Z,10.48
2022-08-18T16:04:01.432Z,8.10
2022-08-18T16:06:32.199Z,8.43
2022-08-18T16:08:59.622Z,9.27
2022-08-18T16:11:29.457Z,6.13
2022-08-18T16:13:59.113Z,9.60
2022-08-18T16:16:29.253Z,9.95
2022-08-18T16:19:05.220Z,9.20
2022-08-18T16:21:32.037Z,8.15
2022-08-18T16:23:59.019Z,8.05
2022-08-18T16:26:25.849Z,6.78
2022-08-18T16:28:53.070Z,9.00
2022-08-18T16:31:25.146Z,10.68
2022-08-18T16:33:56.349Z,12.90
2022-08-18T16:36:25.850Z,8.07
2022-08-18T16:38:58.034Z,8.70
2022-08-18T16:41:26.683Z,8.95
2022-08-18T16:43:53.570Z,18.52
2022-08-18T16:46:26.343Z,9.75
2022-08-18T16:48:58.007Z,7.90
2022-08-18T16:51:27.109Z,8.65
2022-08-18T16:53:54.633Z,9.75
2022-08-18T16:56:26.688Z,11.75
2022-08-18T16:59:13.196Z,7.60
2022-08-18T17:01:59.161Z,7.22
2022-08-18T17:04:29.050Z,6.95
2022-08-18T17:06:56.961Z,7.80
2022-08-18T17:09:23.984Z,8.93
2022-08-18T17:11:52.466Z,6.95
2022-08-18T17:14:24.800Z,5.90
2022-08-18T17:16:55.212Z,8.85
2022-08-18T17:19:28.124Z,9.50
2022-08-18T17:21:54.857Z,15.63
2022-08-18T17:24:32.267Z,42.47
2022-08-18T17:27:27.250Z,10.82
2022-08-18T17:29:54.436Z,9.80
2022-08-18T17:32:26.058Z,9.43
2022-08-18T17:35:00.976Z,9.48
2022-08-18T17:37:31.190Z,8.18
2022-08-18T17:40:04.211Z,8.88
2022-08-18T17:42:32.120Z,10.10
2022-08-18T17:45:08.210Z,13.60
2022-08-18T17:47:59.862Z,9.15
2022-08-18T17:50:55.296Z,9.63
2022-08-18T17:53:22.635Z,9.02
2022-08-18T17:56:00.083Z,10.48
2022-08-18T17:58:38.158Z,8.02
2022-08-18T18:01:05.525Z,7.70
2022-08-18T18:03:34.173Z,8.35
2022-08-18T18:06:32.260Z,10.18
2022-08-18T18:09:02.247Z,7.07
2022-08-18T18:11:35.177Z,7.78
2022-08-18T18:14:34.100Z,7.43
2022-08-18T18:17:14.591Z,8.20
2022-08-18T18:19:48.094Z,9.55
2022-08-18T18:22:27.385Z,9.57
2022-08-18T18:24:56.295Z,9.32
2022-08-18T18:27:27.049Z,9.95
2022-08-18T18:30:07.340Z,7.97
2022-08-18T18:32:38.633Z,7.68
2022-08-18T18:35:34.138Z,8.32
2022-08-18T18:38:04.356Z,8.18
2022-08-18T18:40:57.526Z,8.57
2022-08-18T18:43:27.262Z,8.32
2022-08-18T18:46:08.012Z,7.85
2022-08-18T18:49:01.680Z,9.02
2022-08-18T18:51:53.009Z,9.35
2022-08-18T18:54:44.202Z,7.57
2022-08-18T18:57:30.279Z,10.68
2022-08-18T19:00:16.830Z,8.38
2022-08-18T19:02:53.696Z,8.55
2022-08-18T19:05:38.837Z,8.52
2022-08-18T19:08:28.470Z,8.88
2022-08-18T19:11:05.486Z,7.25
2022-08-18T19:13:37.293Z,9.23
2022-08-18T19:16:29.059Z,8.35
2022-08-18T19:19:38.335Z,8.38
2022-08-18T19:22:05.563Z,7.53
2022-08-18T19:24:38.919Z,10.60
2022-08-18T19:27:07.751Z,8.68
2022-08-18T19:29:42.793Z,7.53
2022-08-18T19:32:17.146Z,7.20
2022-08-18T19:34:51.340Z,7.72
2022-08-18T19:37:30.961Z,8.63
2022-08-18T19:40:37.254Z,8.43
2022-08-18T19:43:13.216Z,7.18
2022-08-18T19:45:46.896Z,9.80
2022-08-18T19:48:35.010Z,7.45
2022-08-18T19:51:08.493Z,8.93
2022-08-18T19:53:59.074Z,8.40
2022-08-18T19:56:25.753Z,8.63
2022-08-18T19:59:34.984Z,10.13
2022-08-18T20:02:40.263Z,7.22
2022-08-18T20:05:39.075Z,7.95
2022-08-18T20:08:27.393Z,6.15
2022-08-18T20:10:54.194Z,7.90
2022-08-18T20:13:33.086Z,9.32
2022-08-18T20:16:02.961Z,6.95
2022-08-18T20:18:34.620Z,7.32
2022-08-18T20:21:16.847Z,6.38
2022-08-18T20:23:56.311Z,9.80
2022-08-18T20:26:35.302Z,7.50
2022-08-18T20:29:02.453Z,13.75
2022-08-18T20:31:53.605Z,11.05
2022-08-18T20:34:23.785Z,13.23
2022-08-18T20:36:52.074Z,12.60
2022-08-18T20:39:42.156Z,12.02
2022-08-18T20:42:37.555Z,10.23
2022-08-18T20:45:12.594Z,10.77
2022-08-18T20:48:03.679Z,9.88
2022-08-18T20:50:54.386Z,12.20
2022-08-18T20:53:24.095Z,10.82
2022-08-18T20:56:32.517Z,9.60
2022-08-18T20:59:30.603Z,9.50
2022-08-18T21:02:06.211Z,9.68
2022-08-18T21:04:50.534Z,11.13
2022-08-18T21:07:36.178Z,11.48
2022-08-18T21:10:24.592Z,10.35
2022-08-18T21:12:54.306Z,9.50
2022-08-18T21:15:31.188Z,9.43
2022-08-18T21:17:59.709Z,12.70
2022-08-18T21:20:27.390Z,12.82
2022-08-18T21:23:12.302Z,12.65
2022-08-18T21:25:56.749Z,10.85
2022-08-18T21:28:26.664Z,11.73
2022-08-18T21:31:42.510Z,12.48
2022-08-18T21:33:56.066Z,16.13
2022-08-18T21:36:25.666Z,22.50
2022-08-18T21:39:05.224Z,13.35
2022-08-18T21:41:34.491Z,18.02
2022-08-18T21:44:07.571Z,20.48
2022-08-18T21:46:34.662Z,21.70
2022-08-18T21:49:02.796Z,23.40
2022-08-18T21:51:38.491Z,24.45
2022-08-18T21:54:05.678Z,16.23
2022-08-18T21:56:34.630Z,15.52
2022-08-18T21:59:14.007Z,17.88
2022-08-18T22:01:58.028Z,17.73
2022-08-18T22:04:35.968Z,15.90
2022-08-18T22:07:06.243Z,15.43
2022-08-18T22:10:20.790Z,13.35
2022-08-18T22:13:14.392Z,14.00
2022-08-18T22:15:42.684Z,15.95
2022-08-18T22:18:18.513Z,19.77
2022-08-18T22:20:51.190Z,17.98
2022-08-18T22:23:43.507Z,16.30
2022-08-18T22:26:16.363Z,17.38
2022-08-18T22:29:13.400Z,15.65
2022-08-18T22:31:48.885Z,16.45
2022-08-18T22:34:26.991Z,15.27
2022-08-18T22:37:00.982Z,18.48
2022-08-18T22:39:35.532Z,15.77
2022-08-18T22:42:03.821Z,17.23
2022-08-18T22:44:30.577Z,16.63
2022-08-18T22:46:57.271Z,15.93
2022-08-18T22:49:24.404Z,17.58
2022-08-18T22:51:53.389Z,14.32
2022-08-18T22:54:20.645Z,14.88
2022-08-18T22:56:53.840Z,15.00
2022-08-18T22:59:23.685Z,16.58
2022-08-18T23:01:51.316Z,15.65
2022-08-18T23:04:20.864Z,15.45
2022-08-18T23:06:54.117Z,16.38
2022-08-18T23:09:29.720Z,16.20
2022-08-18T23:11:59.386Z,13.40
2022-08-18T23:14:26.131Z,13.98
2022-08-18T23:16:52.866Z,13.13
2022-08-18T23:19:20.838Z,13.32
2022-08-18T23:21:48.740Z,13.38
2022-08-18T23:24:17.566Z,11.23
2022-08-18T23:26:44.800Z,11.32
2022-08-18T23:29:12.761Z,13.35
2022-08-18T23:31:40.946Z,14.60
2022-08-18T23:34:08.366Z,13.30
2022-08-18T23:36:41.273Z,14.50
2022-08-18T23:39:10.726Z,13.70
2022-08-18T23:41:38.425Z,15.23
2022-08-18T23:44:06.696Z,15.40
2022-08-18T23:46:33.919Z,14.38
2022-08-18T23:49:02.681Z,15.52
2022-08-18T23:51:35.161Z,14.77
2022-08-18T23:54:05.259Z,14.93
2022-08-18T23:56:32.734Z,14.05
2022-08-18T23:59:00.085Z,13.60
